Latest Coastal Weather Observations for Sydney Airport

IDN60701

Issued at 4:41 am EST Wednesday 17 July 2019 (issued every 10 minutes, with the page automatically refreshed every 10 minutes)

About coastal observations | Map of coastal stations | Coastal observations for NSW | Marine services | Other Formats
Station Details ID: 066037 Name: SYDNEY AIRPORT AMO Lat: -33.95 Lon: 151.17 Height: 6.0 m
Data from the previous 72 hours. | See also: Recent months at Sydney Airport
Date/Time
EST
Wind Sea
Height
m
Swell Vis
km
Cloud Weather Temp
°C
Press
hPa
Rain since
9am
mm
Dir  Spd
kts
Gust
kts
Height
m
Period
s
Dir
17/04:30am NW 9 12 - - - - 10 Clear - 10.0 1017.9 0.0
17/04:00am NW 8 9 - - - - 10 - - 10.5 1018.0 0.0
17/03:30am NW 7 8 - - - - 10 - - 10.3 1018.3 0.0
17/03:00am NW 9 13 - - - - 30 Clear Fine 10.3 1018.3 0.0
17/02:30am WNW 10 13 - - - - 10 - - 10.9 1018.6 0.0
17/02:00am WNW 12 15 - - - - 10 - - 10.5 1018.6 0.0
17/01:30am WNW 9 11 - - - - 10 - - 11.1 1018.8 0.0
17/01:00am NNW 6 8 - - - - 10 - - 10.7 1018.8 0.0
17/12:30am WNW 10 13 - - - - 10 - - 11.5 1019.1 0.0
17/12:00am W 14 17 - - - - 30 Clear Fine 12.3 1019.3 0.0
 
Date/Time
EST
Wind Sea
Height
m
Swell Vis
km
Cloud Weather Temp
°C
Press
hPa
Rain since
9am
mm
Dir  Spd
kts
Gust
kts
Height
m
Period
s
Dir
16/11:30pm NNW 7 9 - - - - 10 - - 12.8 1019.5 0.0
16/11:00pm W 11 17 - - - - 10 - - 12.7 1019.4 0.0
16/10:30pm W 11 15 - - - - 10 - - 12.4 1019.4 0.0
16/10:00pm W 13 18 - - - - 10 - - 12.4 1019.4 0.0
16/09:30pm W 15 18 - - - - 10 - - 12.7 1019.3 0.0
16/09:00pm W 15 19 - - - - 30 Clear Fine 12.9 1019.3 0.0
16/08:30pm WSW 16 20 - - - - 10 - - 13.6 1019.3 0.0
16/08:00pm WSW 17 22 - - - - 10 - - 13.8 1019.3 0.0
16/07:30pm WSW 16 21 - - - - 10 - - 14.1 1019.1 0.0
16/07:00pm WSW 15 18 - - - - 10 - - 14.4 1018.9 0.0
16/06:30pm W 15 22 - - - - 10 - - 14.9 1018.5 0.0
16/06:00pm WSW 17 21 - - - - 30 Mostly clear Fine 15.5 1017.8 0.0
16/05:30pm WSW 16 20 - - - - 10 - - 16.3 1017.4 0.0
16/05:00pm WSW 12 19 - - - - 10 - - 17.1 1017.2 0.0
16/04:30pm WSW 16 20 - - - - 10 - - 18.4 1016.9 0.0
16/04:00pm W 15 17 - - - - 10 - - 19.1 1016.5 0.0
16/03:30pm WSW 12 15 - - - - 10 - - 20.5 1016.1 0.0
16/03:00pm W 14 19 - - - - 40 Mostly clear Fine 20.1 1015.8 0.0
16/02:30pm WSW 16 23 - - - - 10 - - 20.6 1015.6 0.0
16/02:00pm WSW 13 16 - - - - 10 - - 20.1 1015.7 0.0
16/01:30pm W 12 16 - - - - 10 - - 20.8 1015.7 0.0
16/01:00pm W 11 16 - - - - 10 - - 20.2 1016.2 0.0
16/12:30pm W 11 18 - - - - 10 - - 19.7 1016.5 0.0
16/12:00pm W 10 14 - - - - 40 Clear Fine 19.4 1017.1 0.0
16/11:30am W 10 17 - - - - 10 - - 18.6 1017.7 0.0
16/11:00am W 11 17 - - - - 10 - - 17.2 1018.2 0.0
16/10:30am W 10 14 - - - - 10 - - 16.8 1018.6 0.0
16/10:00am WNW 10 15 - - - - 10 - - 15.6 1018.6 0.0
16/09:30am NW 8 13 - - - - 10 - - 15.2 1018.6 0.0
16/09:00am NW 9 10 - - - - 30 Mostly clear Fine 13.8 1018.6 0.0
16/08:30am WNW 8 11 - - - - 10 - - 12.7 1018.5 0.0
16/08:00am WNW 10 13 - - - - 10 - - 11.6 1018.3 0.0
16/07:30am NW 10 12 - - - - 10 - - 10.5 1018.1 0.0
16/07:00am WNW 11 15 - - - - 10 - - 10.0 1018.0 0.0
16/06:30am WNW 14 19 - - - - 10 - - 9.9 1017.6 0.0
16/06:00am NW 11 14 - - - - 30 Clear Fine 9.2 1017.1 0.0
16/05:30am WNW 9 10 - - - - 10 - - 9.6 1016.5 0.0
16/05:00am NW 8 10 - - - - 10 - - 9.9 1016.5 0.0
16/04:30am WNW 8 13 - - - - 10 - - 9.7 1016.4 0.0
16/04:00am W 12 16 - - - - 10 - - 9.8 1016.7 0.0
16/03:30am W 11 15 - - - - 10 - - 9.4 1016.9 0.0
16/03:00am WNW 9 11 - - - - 30 Clear Fine 9.6 1017.0 0.0
16/02:30am NW 9 12 - - - - 10 - - 10.2 1017.2 0.0
16/02:00am WNW 11 14 - - - - 10 - - 10.4 1017.3 0.0
16/01:30am NW 9 10 - - - - 10 - - 10.4 1017.5 0.0
16/01:00am WNW 12 15 - - - - 10 - - 10.8 1017.7 0.0
16/12:30am WNW 11 14 - - - - 10 - - 11.1 1017.9 0.0
16/12:00am WNW 11 15 - - - - 30 Clear Fine 11.1 1017.9 0.0
 
Date/Time
EST
Wind Sea
Height
m
Swell Vis
km
Cloud Weather Temp
°C
Press
hPa
Rain since
9am
mm
Dir  Spd
kts
Gust
kts
Height
m
Period
s
Dir
15/11:30pm WNW 9 12 - - - - 10 - - 11.0 1018.2 0.0
15/11:00pm WNW 11 14 - - - - 10 - - 11.2 1018.2 0.0
15/10:30pm WNW 14 18 - - - - 10 - - 11.9 1018.3 0.0
15/10:00pm WNW 11 14 - - - - 10 - - 12.1 1018.5 0.0
15/09:30pm WNW 13 18 - - - - 10 - - 12.8 1018.8 0.0
15/09:00pm WNW 10 15 - - - - 30 Mostly clear Fine 12.4 1018.8 0.0
15/08:30pm W 13 17 - - - - 10 - - 12.9 1018.9 0.0
15/08:00pm W 15 19 - - - - 10 - - 13.0 1018.7 0.0
15/07:30pm W 13 17 - - - - 10 - - 13.1 1018.9 0.0
15/07:00pm WSW 14 18 - - - - 10 - - 13.1 1018.8 0.0
15/06:30pm WSW 11 15 - - - - 10 - - 13.7 1018.4 0.0
15/06:00pm W 11 15 - - - - 30 Mostly clear Fine 14.9 1018.1 0.0
15/05:30pm W 13 16 - - - - 10 - - 14.9 1017.7 0.0
15/05:00pm W 14 18 - - - - 10 - - 15.7 1017.2 0.0
15/04:30pm W 16 22 - - - - 10 - - 16.7 1016.9 0.0
15/04:00pm W 17 21 - - - - 10 - - 16.8 1016.6 0.0
15/03:30pm WSW 14 17 - - - - 10 - - 17.3 1016.6 0.0
15/03:13pm W 13 28 - - - - 10 - - 17.6 1016.6 0.0
15/03:00pm SW 12 15 - - - - 40 Mostly clear Fine 17.2 1016.3 0.0
15/02:30pm SW 12 17 - - - - 10 - - 17.1 1016.2 0.0
15/02:00pm SSW 11 15 - - - - 10 - - 16.5 1016.3 0.0
15/01:30pm SSW 13 17 - - - - 10 - - 16.3 1016.3 0.0
15/01:19pm SSW 15 25 - - - - 10 - - 16.2 1016.0 0.0
15/01:00pm SW 15 21 - - - - 10 - - 16.5 1015.9 0.0
15/12:30pm SW 15 20 - - - - 10 - - 16.2 1016.2 0.0
15/12:00pm SW 19 27 - - - - 30 Partly cloudy Fine 15.5 1016.5 0.0
15/11:30am SW 19 28 - - - - 10 Partly cloudy - 15.0 1017.1 0.0
15/11:00am SW 21 26 - - - - 10 Partly cloudy - 15.1 1017.3 0.0
15/10:40am SW 19 29 - - - - 10 Partly cloudy - 15.3 1017.0 0.0
15/10:30am SW 18 26 - - - - 10 Partly cloudy - 15.1 1017.1 0.0
15/10:00am WSW 17 23 - - - - 10 Partly cloudy - 15.0 1016.8 0.0
15/09:30am WSW 17 23 - - - - 10 - - 14.6 1016.3 0.0
15/09:00am WSW 17 25 - - - - 30 Mostly clear Fine 13.7 1016.1 0.0
15/08:30am WSW 18 27 - - - - 10 Mostly clear - 13.4 1015.3 0.0
15/08:00am WSW 18 24 - - - - 10 Mostly clear - 12.8 1014.9 0.0
15/07:30am WSW 18 23 - - - - 10 Mostly clear - 12.2 1014.3 0.0
15/07:23am W 17 22 - - - - 10 Mostly clear - 12.0 1014.3 0.0
15/07:00am WSW 8 11 - - - - 10 Mostly clear - 11.6 1013.7 0.0
15/06:30am W 12 16 - - - - 10 Mostly clear - 12.2 1012.8 0.0
15/06:00am W 16 20 - - - - 30 Mostly clear Fine 12.3 1012.0 0.0
15/05:30am W 20 27 - - - - 10 - - 12.4 1011.2 0.0
15/05:00am W 21 27 - - - - 10 - - 12.6 1010.7 0.0
15/04:52am W 21 31 - - - - 10 - - 12.6 1010.7 0.0
15/04:30am W 20 25 - - - - 10 Mostly clear - 12.8 1010.6 0.0
15/04:00am W 22 32 - - - - 10 Cloudy - 13.0 1010.0 0.0
15/03:48am W 18 31 - - - - 10 Cloudy - 12.5 1010.0 0.0
15/03:30am NW 9 15 - - - - 10 Partly cloudy - 11.3 1010.7 0.0
15/03:00am NNE 6 10 - - - - 30 Mostly cloudy Fine 10.7 1011.2 0.0
15/02:30am NNW 5 8 - - - - 10 Cloudy - 11.4 1011.2 0.0
15/02:00am NW 17 22 - - - - 10 Cloudy - 11.0 1010.9 0.0
15/01:30am NW 19 22 - - - - 10 Partly cloudy - 10.6 1011.1 0.0
15/01:00am NNW 15 18 - - - - 10 - - 9.9 1011.9 0.0
15/12:30am NNW 11 13 - - - - 10 Mostly clear - 9.9 1012.8 0.0
15/12:00am N 8 10 - - - - 30 Mostly cloudy Fine 9.3 1013.5 0.0
 
Date/Time
EST
Wind Sea
Height
m
Swell Vis
km
Cloud Weather Temp
°C
Press
hPa
Rain since
9am
mm
Dir  Spd
kts
Gust
kts
Height
m
Period
s
Dir
14/11:30pm N 9 9 - - - - 10 Mostly clear - 9.6 1013.9 0.0
14/11:00pm N 10 11 - - - - 10 Mostly clear - 9.8 1014.0 0.0
14/10:30pm NNW 11 14 - - - - 10 Mostly clear - 10.6 1014.2 0.0
14/10:00pm NNW 8 11 - - - - 10 Mostly clear - 10.8 1014.7 0.0
14/09:30pm NNW 9 12 - - - - 10 Mostly clear - 11.0 1015.1 0.0
14/09:00pm NNW 8 10 - - - - 30 Partly cloudy Fine 11.1 1015.3 0.0
14/08:30pm WNW 10 12 - - - - 10 Mostly clear - 10.9 1015.2 0.0
14/08:00pm WNW 13 16 - - - - 10 Mostly clear - 10.7 1015.0 0.0
14/07:30pm NW 12 16 - - - - 10 Mostly clear - 11.5 1014.9 0.0
14/07:00pm NW 11 15 - - - - 10 Mostly clear - 11.6 1015.4 0.0
14/06:30pm W 11 14 - - - - 10 Mostly clear - 11.5 1015.7 0.0
14/06:00pm W 11 15 - - - - 30 Mostly clear Fine 11.5 1015.9 0.0
14/05:30pm W 16 20 - - - - 10 Mostly clear - 12.5 1015.3 0.0
14/05:00pm W 16 21 - - - - 10 Mostly clear - 13.4 1015.4 0.0
14/04:30pm W 18 23 - - - - 10 Mostly clear - 13.9 1015.0 0.0
14/04:00pm W 23 32 - - - - 10 Mostly clear - 14.6 1015.0 0.0
14/03:49pm W 17 28 - - - - 10 Mostly clear - 14.9 1014.7 0.0
14/03:30pm W 21 27 - - - - 10 Mostly clear - 15.3 1015.1 0.0
14/03:00pm W 19 26 - - - - 30 Mostly clear Fine 15.7 1015.6 0.0
14/02:40pm W 21 31 - - - - 10 - - 15.6 1015.7 0.0
14/02:30pm W 22 30 - - - - 10 - - 16.2 1015.7 0.0
14/02:07pm W 15 26 - - - - 10 - - 16.9 1015.9 0.0
14/02:00pm W 12 19 - - - - 10 - - 17.2 1016.0 0.0
14/01:35pm WNW 15 25 - - - - 10 - - 16.8 1016.2 0.0
14/01:30pm WNW 14 19 - - - - 10 - - 16.9 1016.3 0.0
14/01:00pm W 14 20 - - - - 10 - - 15.6 1016.9 0.0
14/12:30pm WNW 17 22 - - - - 10 - - 15.5 1018.1 0.0
14/12:00pm W 19 24 - - - - 30 Mostly clear Fine 14.2 1018.9 0.0
14/11:30am W 18 26 - - - - 10 - - 13.5 1019.8 0.0
14/11:00am W 16 22 - - - - 10 - - 13.3 1020.5 0.0
14/10:30am W 17 23 - - - - 10 - - 12.4 1021.3 0.0
14/10:00am W 15 20 - - - - 10 - - 12.4 1021.6 0.0
14/09:30am W 13 18 - - - - 10 - - 11.4 1021.9 0.0
14/09:00am WNW 12 17 - - - - 40 Mostly clear Fine 11.1 1022.1 0.2
14/08:30am WNW 9 14 - - - - 10 - - 10.2 1022.0 0.2
14/08:00am NW 9 10 - - - - 10 - - 9.4 1022.0 0.2
14/07:30am NW 8 11 - - - - 10 - - 8.8 1021.8 0.2
14/07:00am WNW 8 11 - - - - 10 - - 7.1 1021.5 0.2
14/06:30am NW 6 13 - - - - 10 - - 7.2 1021.5 0.2
14/06:00am WNW 10 12 - - - - 30 Mostly clear Fine 6.9 1021.2 0.2
14/05:30am WNW 10 14 - - - - 10 - - 8.0 1021.0 0.2
14/05:00am WNW 8 12 - - - - 10 - - 7.3 1021.0 0.2

Other formats

Comma delimited format used in spreadsheet applications
http://www.bom.gov.au/fwo/IDN60701/IDN60701.94767.axf

JavaScript Object Notation format (JSON) in row-major order
http://www.bom.gov.au/fwo/IDN60701/IDN60701.94767.json

Data quality

Most of these data are generated automatically and are frequently updated. Quality checks on data are not normally performed. It is possible for incorrect values to appear. Refer to information at About Latest Weather Observations and please check the disclaimer before using these data.